sensor_id;sensor_type;location;lat;lon;timestamp;P1;durP1;ratioP1;P2;durP2;ratioP2
2111;SDS011;1062;52.538;13.400;2022-08-25T00:00:10;10.70;;;6.93;;
2111;SDS011;1062;52.538;13.400;2022-08-25T00:02:36;7.17;;;6.40;;
2111;SDS011;1062;52.538;13.400;2022-08-25T00:05:02;7.30;;;6.60;;
2111;SDS011;1062;52.538;13.400;2022-08-25T00:07:28;7.40;;;6.70;;
2111;SDS011;1062;52.538;13.400;2022-08-25T00:09:55;8.37;;;6.40;;
2111;SDS011;1062;52.538;13.400;2022-08-25T00:12:20;7.20;;;6.60;;
2111;SDS011;1062;52.538;13.400;2022-08-25T00:14:46;11.90;;;7.17;;
2111;SDS011;1062;52.538;13.400;2022-08-25T00:17:12;9.50;;;6.77;;
2111;SDS011;1062;52.538;13.400;2022-08-25T00:19:37;7.93;;;7.13;;
2111;SDS011;1062;52.538;13.400;2022-08-25T00:22:03;7.70;;;6.90;;
2111;SDS011;1062;52.538;13.400;2022-08-25T00:24:30;12.50;;;5.63;;
2111;SDS011;1062;52.538;13.400;2022-08-25T00:26:56;8.97;;;7.27;;
2111;SDS011;1062;52.538;13.400;2022-08-25T00:29:23;8.37;;;7.20;;
2111;SDS011;1062;52.538;13.400;2022-08-25T00:31:50;7.67;;;6.60;;
2111;SDS011;1062;52.538;13.400;2022-08-25T00:34:18;9.00;;;7.13;;
2111;SDS011;1062;52.538;13.400;2022-08-25T00:36:47;9.90;;;7.03;;
2111;SDS011;1062;52.538;13.400;2022-08-25T00:39:15;8.20;;;6.67;;
2111;SDS011;1062;52.538;13.400;2022-08-25T00:41:42;7.10;;;6.40;;
2111;SDS011;1062;52.538;13.400;2022-08-25T00:44:09;11.03;;;6.37;;
2111;SDS011;1062;52.538;13.400;2022-08-25T00:46:39;11.80;;;7.60;;
2111;SDS011;1062;52.538;13.400;2022-08-25T00:49:12;9.43;;;7.30;;
2111;SDS011;1062;52.538;13.400;2022-08-25T00:52:00;10.93;;;6.47;;
2111;SDS011;1062;52.538;13.400;2022-08-25T00:54:36;7.83;;;6.63;;
2111;SDS011;1062;52.538;13.400;2022-08-25T00:57:11;7.37;;;6.30;;
2111;SDS011;1062;52.538;13.400;2022-08-25T00:59:39;8.17;;;6.80;;
2111;SDS011;1062;52.538;13.400;2022-08-25T01:02:08;8.33;;;7.50;;
2111;SDS011;1062;52.538;13.400;2022-08-25T01:04:34;12.33;;;7.97;;
2111;SDS011;1062;52.538;13.400;2022-08-25T01:07:03;8.20;;;7.40;;
2111;SDS011;1062;52.538;13.400;2022-08-25T01:09:30;9.20;;;7.57;;
2111;SDS011;1062;52.538;13.400;2022-08-25T01:11:57;9.20;;;8.30;;
2111;SDS011;1062;52.538;13.400;2022-08-25T01:14:23;9.53;;;6.53;;
2111;SDS011;1062;52.538;13.400;2022-08-25T01:16:50;8.77;;;7.53;;
2111;SDS011;1062;52.538;13.400;2022-08-25T01:19:17;8.63;;;7.10;;
2111;SDS011;1062;52.538;13.400;2022-08-25T01:21:52;10.93;;;7.43;;
2111;SDS011;1062;52.538;13.400;2022-08-25T01:24:25;10.10;;;8.20;;
2111;SDS011;1062;52.538;13.400;2022-08-25T01:26:53;9.27;;;7.97;;
2111;SDS011;1062;52.538;13.400;2022-08-25T01:29:18;8.50;;;7.70;;
2111;SDS011;1062;52.538;13.400;2022-08-25T01:31:51;13.40;;;8.23;;
2111;SDS011;1062;52.538;13.400;2022-08-25T01:34:23;7.50;;;6.90;;
2111;SDS011;1062;52.538;13.400;2022-08-25T01:36:50;7.80;;;7.00;;
2111;SDS011;1062;52.538;13.400;2022-08-25T01:39:16;8.47;;;7.23;;
2111;SDS011;1062;52.538;13.400;2022-08-25T01:44:30;10.23;;;7.90;;
2111;SDS011;1062;52.538;13.400;2022-08-25T01:46:57;9.80;;;7.60;;
2111;SDS011;1062;52.538;13.400;2022-08-25T01:49:22;11.93;;;7.93;;
2111;SDS011;1062;52.538;13.400;2022-08-25T01:51:52;8.60;;;7.40;;
2111;SDS011;1062;52.538;13.400;2022-08-25T01:54:21;11.30;;;7.87;;
2111;SDS011;1062;52.538;13.400;2022-08-25T01:56:47;11.63;;;8.83;;
2111;SDS011;1062;52.538;13.400;2022-08-25T01:59:19;8.67;;;7.70;;
2111;SDS011;1062;52.538;13.400;2022-08-25T02:01:45;11.00;;;7.37;;
2111;SDS011;1062;52.538;13.400;2022-08-25T02:04:11;8.87;;;7.97;;
2111;SDS011;1062;52.538;13.400;2022-08-25T02:06:36;10.90;;;8.13;;
2111;SDS011;1062;52.538;13.400;2022-08-25T02:09:06;8.83;;;8.03;;
2111;SDS011;1062;52.538;13.400;2022-08-25T02:11:38;10.70;;;8.80;;
2111;SDS011;1062;52.538;13.400;2022-08-25T02:14:06;9.43;;;8.23;;
2111;SDS011;1062;52.538;13.400;2022-08-25T02:16:33;9.10;;;7.90;;
2111;SDS011;1062;52.538;13.400;2022-08-25T02:19:01;8.50;;;7.73;;
2111;SDS011;1062;52.538;13.400;2022-08-25T02:21:27;7.57;;;6.67;;
2111;SDS011;1062;52.538;13.400;2022-08-25T02:23:53;14.67;;;10.80;;
2111;SDS011;1062;52.538;13.400;2022-08-25T02:26:20;11.90;;;8.00;;
2111;SDS011;1062;52.538;13.400;2022-08-25T02:28:46;12.40;;;9.17;;
2111;SDS011;1062;52.538;13.400;2022-08-25T02:31:13;11.90;;;8.00;;
2111;SDS011;1062;52.538;13.400;2022-08-25T02:33:40;10.20;;;8.50;;
2111;SDS011;1062;52.538;13.400;2022-08-25T02:36:06;8.13;;;7.30;;
2111;SDS011;1062;52.538;13.400;2022-08-25T02:38:33;10.50;;;7.30;;
2111;SDS011;1062;52.538;13.400;2022-08-25T02:41:00;9.27;;;7.27;;
2111;SDS011;1062;52.538;13.400;2022-08-25T02:43:31;7.77;;;6.97;;
2111;SDS011;1062;52.538;13.400;2022-08-25T02:45:57;11.50;;;8.60;;
2111;SDS011;1062;52.538;13.400;2022-08-25T02:48:23;8.53;;;7.73;;
2111;SDS011;1062;52.538;13.400;2022-08-25T02:50:50;13.50;;;8.97;;
2111;SDS011;1062;52.538;13.400;2022-08-25T02:53:17;9.00;;;7.60;;
2111;SDS011;1062;52.538;13.400;2022-08-25T02:55:43;14.30;;;9.00;;
2111;SDS011;1062;52.538;13.400;2022-08-25T02:58:09;10.13;;;8.67;;
2111;SDS011;1062;52.538;13.400;2022-08-25T03:00:35;9.77;;;7.70;;
2111;SDS011;1062;52.538;13.400;2022-08-25T03:03:01;11.43;;;8.30;;
2111;SDS011;1062;52.538;13.400;2022-08-25T03:05:27;13.30;;;9.80;;
2111;SDS011;1062;52.538;13.400;2022-08-25T03:07:53;15.20;;;8.97;;
2111;SDS011;1062;52.538;13.400;2022-08-25T03:10:18;18.20;;;8.37;;
2111;SDS011;1062;52.538;13.400;2022-08-25T03:12:44;11.30;;;8.33;;
2111;SDS011;1062;52.538;13.400;2022-08-25T03:15:12;11.57;;;9.30;;
2111;SDS011;1062;52.538;13.400;2022-08-25T03:17:43;9.47;;;8.47;;
2111;SDS011;1062;52.538;13.400;2022-08-25T03:20:09;11.70;;;10.50;;
2111;SDS011;1062;52.538;13.400;2022-08-25T03:22:35;14.17;;;8.57;;
2111;SDS011;1062;52.538;13.400;2022-08-25T03:25:02;10.83;;;9.67;;
2111;SDS011;1062;52.538;13.400;2022-08-25T03:27:52;12.67;;;8.80;;
2111;SDS011;1062;52.538;13.400;2022-08-25T03:30:18;9.13;;;8.07;;
2111;SDS011;1062;52.538;13.400;2022-08-25T03:32:44;10.07;;;8.80;;
2111;SDS011;1062;52.538;13.400;2022-08-25T03:35:10;11.67;;;9.53;;
2111;SDS011;1062;52.538;13.400;2022-08-25T03:37:36;11.13;;;9.30;;
2111;SDS011;1062;52.538;13.400;2022-08-25T03:40:03;13.30;;;9.43;;
2111;SDS011;1062;52.538;13.400;2022-08-25T03:42:31;13.50;;;10.13;;
2111;SDS011;1062;52.538;13.400;2022-08-25T03:44:57;13.20;;;9.70;;
2111;SDS011;1062;52.538;13.400;2022-08-25T03:47:23;12.33;;;10.27;;
2111;SDS011;1062;52.538;13.400;2022-08-25T03:49:50;15.20;;;10.20;;
2111;SDS011;1062;52.538;13.400;2022-08-25T03:52:16;13.63;;;10.50;;
2111;SDS011;1062;52.538;13.400;2022-08-25T03:54:42;13.43;;;10.90;;
2111;SDS011;1062;52.538;13.400;2022-08-25T03:57:09;16.20;;;11.10;;
2111;SDS011;1062;52.538;13.400;2022-08-25T03:59:35;13.77;;;9.93;;
2111;SDS011;1062;52.538;13.400;2022-08-25T04:02:03;12.40;;;10.80;;
2111;SDS011;1062;52.538;13.400;2022-08-25T04:04:29;17.77;;;12.60;;
2111;SDS011;1062;52.538;13.400;2022-08-25T04:06:55;20.10;;;12.63;;
2111;SDS011;1062;52.538;13.400;2022-08-25T04:09:20;18.33;;;13.03;;
2111;SDS011;1062;52.538;13.400;2022-08-25T04:11:46;18.67;;;13.83;;
2111;SDS011;1062;52.538;13.400;2022-08-25T04:14:12;18.33;;;13.40;;
2111;SDS011;1062;52.538;13.400;2022-08-25T04:16:38;21.27;;;14.30;;
2111;SDS011;1062;52.538;13.400;2022-08-25T04:19:05;21.27;;;15.10;;
2111;SDS011;1062;52.538;13.400;2022-08-25T04:21:33;19.67;;;13.97;;
2111;SDS011;1062;52.538;13.400;2022-08-25T04:24:00;25.90;;;15.70;;
2111;SDS011;1062;52.538;13.400;2022-08-25T04:26:27;22.53;;;13.97;;
2111;SDS011;1062;52.538;13.400;2022-08-25T04:28:58;23.20;;;14.40;;
2111;SDS011;1062;52.538;13.400;2022-08-25T04:31:26;25.10;;;13.33;;
2111;SDS011;1062;52.538;13.400;2022-08-25T04:33:53;19.13;;;13.77;;
2111;SDS011;1062;52.538;13.400;2022-08-25T04:36:19;21.30;;;14.00;;
2111;SDS011;1062;52.538;13.400;2022-08-25T04:38:45;22.33;;;14.57;;
2111;SDS011;1062;52.538;13.400;2022-08-25T04:41:13;20.00;;;12.90;;
2111;SDS011;1062;52.538;13.400;2022-08-25T04:43:41;21.17;;;14.13;;
2111;SDS011;1062;52.538;13.400;2022-08-25T04:46:09;30.33;;;15.10;;
2111;SDS011;1062;52.538;13.400;2022-08-25T04:48:37;19.20;;;12.73;;
2111;SDS011;1062;52.538;13.400;2022-08-25T04:51:07;15.87;;;13.90;;
2111;SDS011;1062;52.538;13.400;2022-08-25T04:53:35;19.60;;;14.47;;
2111;SDS011;1062;52.538;13.400;2022-08-25T04:56:01;18.53;;;12.30;;
2111;SDS011;1062;52.538;13.400;2022-08-25T04:58:29;26.90;;;14.93;;
2111;SDS011;1062;52.538;13.400;2022-08-25T05:01:00;25.13;;;15.90;;
2111;SDS011;1062;52.538;13.400;2022-08-25T05:03:29;19.83;;;13.63;;
2111;SDS011;1062;52.538;13.400;2022-08-25T05:05:55;22.37;;;13.23;;
2111;SDS011;1062;52.538;13.400;2022-08-25T05:08:21;19.70;;;13.23;;
2111;SDS011;1062;52.538;13.400;2022-08-25T05:10:47;22.60;;;13.77;;
2111;SDS011;1062;52.538;13.400;2022-08-25T05:13:12;17.60;;;12.83;;
2111;SDS011;1062;52.538;13.400;2022-08-25T05:15:38;16.63;;;12.40;;
2111;SDS011;1062;52.538;13.400;2022-08-25T05:18:16;16.30;;;11.20;;
2111;SDS011;1062;52.538;13.400;2022-08-25T05:20:43;17.70;;;12.80;;
2111;SDS011;1062;52.538;13.400;2022-08-25T05:23:09;21.90;;;13.30;;
2111;SDS011;1062;52.538;13.400;2022-08-25T05:25:34;19.03;;;12.47;;
2111;SDS011;1062;52.538;13.400;2022-08-25T05:28:00;16.83;;;11.27;;
2111;SDS011;1062;52.538;13.400;2022-08-25T05:30:26;18.67;;;12.63;;
2111;SDS011;1062;52.538;13.400;2022-08-25T05:32:52;21.70;;;12.43;;
2111;SDS011;1062;52.538;13.400;2022-08-25T05:35:17;17.03;;;12.97;;
2111;SDS011;1062;52.538;13.400;2022-08-25T05:37:44;19.13;;;12.67;;
2111;SDS011;1062;52.538;13.400;2022-08-25T05:40:10;15.73;;;10.23;;
2111;SDS011;1062;52.538;13.400;2022-08-25T05:42:36;14.60;;;10.93;;
2111;SDS011;1062;52.538;13.400;2022-08-25T05:45:03;13.83;;;10.60;;
2111;SDS011;1062;52.538;13.400;2022-08-25T05:47:29;15.03;;;10.10;;
2111;SDS011;1062;52.538;13.400;2022-08-25T05:49:55;15.73;;;9.90;;
2111;SDS011;1062;52.538;13.400;2022-08-25T05:52:21;17.27;;;10.77;;
2111;SDS011;1062;52.538;13.400;2022-08-25T05:54:46;14.87;;;11.03;;
2111;SDS011;1062;52.538;13.400;2022-08-25T05:57:12;15.70;;;10.90;;
2111;SDS011;1062;52.538;13.400;2022-08-25T05:59:38;14.40;;;11.00;;
2111;SDS011;1062;52.538;13.400;2022-08-25T06:02:03;15.20;;;12.00;;
2111;SDS011;1062;52.538;13.400;2022-08-25T06:04:47;15.43;;;11.43;;
2111;SDS011;1062;52.538;13.400;2022-08-25T06:07:13;14.07;;;10.40;;
2111;SDS011;1062;52.538;13.400;2022-08-25T06:09:39;14.47;;;11.20;;
2111;SDS011;1062;52.538;13.400;2022-08-25T06:12:05;14.23;;;10.03;;
2111;SDS011;1062;52.538;13.400;2022-08-25T06:14:31;17.00;;;11.90;;
2111;SDS011;1062;52.538;13.400;2022-08-25T06:16:57;17.43;;;11.40;;
2111;SDS011;1062;52.538;13.400;2022-08-25T06:19:24;17.27;;;12.07;;
2111;SDS011;1062;52.538;13.400;2022-08-25T06:21:54;15.23;;;10.60;;
2111;SDS011;1062;52.538;13.400;2022-08-25T06:24:20;14.83;;;10.10;;
2111;SDS011;1062;52.538;13.400;2022-08-25T06:26:46;19.90;;;13.47;;
2111;SDS011;1062;52.538;13.400;2022-08-25T06:29:12;19.43;;;12.77;;
2111;SDS011;1062;52.538;13.400;2022-08-25T06:31:38;19.20;;;11.80;;
2111;SDS011;1062;52.538;13.400;2022-08-25T06:34:03;19.30;;;10.00;;
2111;SDS011;1062;52.538;13.400;2022-08-25T06:36:30;20.23;;;12.80;;
2111;SDS011;1062;52.538;13.400;2022-08-25T06:38:55;16.70;;;11.93;;
2111;SDS011;1062;52.538;13.400;2022-08-25T06:41:21;21.30;;;13.10;;
2111;SDS011;1062;52.538;13.400;2022-08-25T06:43:47;16.17;;;12.13;;
2111;SDS011;1062;52.538;13.400;2022-08-25T06:46:17;16.20;;;11.23;;
2111;SDS011;1062;52.538;13.400;2022-08-25T06:48:45;17.63;;;10.93;;
2111;SDS011;1062;52.538;13.400;2022-08-25T06:51:13;18.37;;;12.60;;
2111;SDS011;1062;52.538;13.400;2022-08-25T06:53:41;21.10;;;12.30;;
2111;SDS011;1062;52.538;13.400;2022-08-25T06:56:07;18.57;;;12.33;;
2111;SDS011;1062;52.538;13.400;2022-08-25T06:58:33;17.53;;;11.87;;
2111;SDS011;1062;52.538;13.400;2022-08-25T07:01:09;18.57;;;12.00;;
2111;SDS011;1062;52.538;13.400;2022-08-25T07:03:46;16.13;;;11.93;;
2111;SDS011;1062;52.538;13.400;2022-08-25T07:06:13;20.00;;;12.30;;
2111;SDS011;1062;52.538;13.400;2022-08-25T07:08:39;21.03;;;12.70;;
2111;SDS011;1062;52.538;13.400;2022-08-25T07:11:08;19.97;;;12.30;;
2111;SDS011;1062;52.538;13.400;2022-08-25T07:13:35;15.30;;;11.70;;
2111;SDS011;1062;52.538;13.400;2022-08-25T07:16:01;19.20;;;12.53;;
2111;SDS011;1062;52.538;13.400;2022-08-25T07:18:27;19.27;;;13.10;;
2111;SDS011;1062;52.538;13.400;2022-08-25T07:20:53;17.70;;;11.63;;
2111;SDS011;1062;52.538;13.400;2022-08-25T07:23:20;18.87;;;12.43;;
2111;SDS011;1062;52.538;13.400;2022-08-25T07:25:46;20.20;;;12.83;;
2111;SDS011;1062;52.538;13.400;2022-08-25T07:28:12;22.40;;;14.33;;
2111;SDS011;1062;52.538;13.400;2022-08-25T07:30:39;17.00;;;12.70;;
2111;SDS011;1062;52.538;13.400;2022-08-25T07:33:05;16.87;;;11.67;;
2111;SDS011;1062;52.538;13.400;2022-08-25T07:35:30;20.70;;;12.60;;
2111;SDS011;1062;52.538;13.400;2022-08-25T07:37:56;20.70;;;12.87;;
2111;SDS011;1062;52.538;13.400;2022-08-25T07:40:30;18.80;;;11.90;;
2111;SDS011;1062;52.538;13.400;2022-08-25T07:42:58;19.40;;;12.20;;
2111;SDS011;1062;52.538;13.400;2022-08-25T07:45:27;19.10;;;13.10;;
2111;SDS011;1062;52.538;13.400;2022-08-25T07:47:58;22.40;;;13.47;;
2111;SDS011;1062;52.538;13.400;2022-08-25T07:50:25;19.17;;;12.83;;
2111;SDS011;1062;52.538;13.400;2022-08-25T07:52:52;25.17;;;13.00;;
2111;SDS011;1062;52.538;13.400;2022-08-25T07:55:18;15.67;;;12.17;;
2111;SDS011;1062;52.538;13.400;2022-08-25T07:57:44;21.33;;;12.07;;
2111;SDS011;1062;52.538;13.400;2022-08-25T08:00:11;22.73;;;13.87;;
2111;SDS011;1062;52.538;13.400;2022-08-25T08:02:39;24.87;;;13.40;;
2111;SDS011;1062;52.538;13.400;2022-08-25T08:05:06;20.40;;;14.53;;
2111;SDS011;1062;52.538;13.400;2022-08-25T08:07:32;18.53;;;12.33;;
2111;SDS011;1062;52.538;13.400;2022-08-25T08:09:58;18.33;;;13.90;;
2111;SDS011;1062;52.538;13.400;2022-08-25T08:12:24;21.90;;;13.70;;
2111;SDS011;1062;52.538;13.400;2022-08-25T08:14:50;21.07;;;13.30;;
2111;SDS011;1062;52.538;13.400;2022-08-25T08:17:17;16.37;;;12.37;;
2111;SDS011;1062;52.538;13.400;2022-08-25T08:19:43;16.93;;;11.40;;
2111;SDS011;1062;52.538;13.400;2022-08-25T08:22:09;22.13;;;13.20;;
2111;SDS011;1062;52.538;13.400;2022-08-25T08:24:35;18.50;;;13.00;;
2111;SDS011;1062;52.538;13.400;2022-08-25T08:27:04;20.23;;;13.43;;
2111;SDS011;1062;52.538;13.400;2022-08-25T08:29:31;21.33;;;13.93;;
2111;SDS011;1062;52.538;13.400;2022-08-25T08:31:56;17.10;;;12.23;;
2111;SDS011;1062;52.538;13.400;2022-08-25T08:34:22;17.00;;;11.77;;
2111;SDS011;1062;52.538;13.400;2022-08-25T08:36:48;13.67;;;10.67;;
2111;SDS011;1062;52.538;13.400;2022-08-25T08:39:13;15.83;;;11.63;;
2111;SDS011;1062;52.538;13.400;2022-08-25T08:41:43;12.73;;;9.77;;
2111;SDS011;1062;52.538;13.400;2022-08-25T08:47:15;15.33;;;10.13;;
2111;SDS011;1062;52.538;13.400;2022-08-25T08:50:09;10.97;;;9.27;;
2111;SDS011;1062;52.538;13.400;2022-08-25T08:53:02;11.63;;;9.60;;
2111;SDS011;1062;52.538;13.400;2022-08-25T08:55:54;10.33;;;8.53;;
2111;SDS011;1062;52.538;13.400;2022-08-25T08:58:24;9.67;;;8.23;;
2111;SDS011;1062;52.538;13.400;2022-08-25T09:01:02;9.90;;;8.53;;
2111;SDS011;1062;52.538;13.400;2022-08-25T09:03:35;13.70;;;8.90;;
2111;SDS011;1062;52.538;13.400;2022-08-25T09:06:09;8.40;;;7.47;;
2111;SDS011;1062;52.538;13.400;2022-08-25T09:08:43;11.43;;;8.23;;
2111;SDS011;1062;52.538;13.400;2022-08-25T09:11:33;9.43;;;8.53;;
2111;SDS011;1062;52.538;13.400;2022-08-25T09:14:22;12.07;;;8.43;;
2111;SDS011;1062;52.538;13.400;2022-08-25T09:16:57;8.20;;;7.40;;
2111;SDS011;1062;52.538;13.400;2022-08-25T09:25:50;7.40;;;6.80;;
2111;SDS011;1062;52.538;13.400;2022-08-25T09:28:30;10.60;;;7.93;;
2111;SDS011;1062;52.538;13.400;2022-08-25T09:31:10;7.83;;;7.13;;
2111;SDS011;1062;52.538;13.400;2022-08-25T09:33:40;9.23;;;8.30;;
2111;SDS011;1062;52.538;13.400;2022-08-25T09:36:05;9.90;;;7.70;;
2111;SDS011;1062;52.538;13.400;2022-08-25T09:38:31;9.00;;;7.40;;
2111;SDS011;1062;52.538;13.400;2022-08-25T09:40:58;8.60;;;6.93;;
2111;SDS011;1062;52.538;13.400;2022-08-25T09:48:47;9.60;;;7.90;;
2111;SDS011;1062;52.538;13.400;2022-08-25T09:51:28;9.30;;;8.40;;
2111;SDS011;1062;52.538;13.400;2022-08-25T09:59:33;7.87;;;7.07;;
2111;SDS011;1062;52.538;13.400;2022-08-25T10:04:50;7.30;;;6.60;;
2111;SDS011;1062;52.538;13.400;2022-08-25T10:07:27;7.57;;;6.77;;
2111;SDS011;1062;52.538;13.400;2022-08-25T10:09:58;7.73;;;6.93;;
2111;SDS011;1062;52.538;13.400;2022-08-25T10:12:36;13.77;;;6.90;;
2111;SDS011;1062;52.538;13.400;2022-08-25T10:15:18;9.30;;;5.60;;
2111;SDS011;1062;52.538;13.400;2022-08-25T10:17:47;7.00;;;6.40;;
2111;SDS011;1062;52.538;13.400;2022-08-25T10:20:19;7.50;;;6.80;;
2111;SDS011;1062;52.538;13.400;2022-08-25T10:22:47;7.57;;;6.87;;
2111;SDS011;1062;52.538;13.400;2022-08-25T10:25:15;6.40;;;5.77;;
2111;SDS011;1062;52.538;13.400;2022-08-25T10:27:53;8.00;;;6.97;;
2111;SDS011;1062;52.538;13.400;2022-08-25T10:36:01;5.70;;;5.13;;
2111;SDS011;1062;52.538;13.400;2022-08-25T10:57:14;6.80;;;4.77;;
2111;SDS011;1062;52.538;13.400;2022-08-25T10:59:47;6.47;;;5.63;;
2111;SDS011;1062;52.538;13.400;2022-08-25T11:05:02;6.53;;;5.93;;
2111;SDS011;1062;52.538;13.400;2022-08-25T11:07:36;7.70;;;5.83;;
2111;SDS011;1062;52.538;13.400;2022-08-25T11:10:06;5.20;;;4.80;;
2111;SDS011;1062;52.538;13.400;2022-08-25T11:12:37;5.47;;;4.93;;
2111;SDS011;1062;52.538;13.400;2022-08-25T11:15:10;6.63;;;5.67;;
2111;SDS011;1062;52.538;13.400;2022-08-25T11:17:43;14.00;;;6.70;;
2111;SDS011;1062;52.538;13.400;2022-08-25T11:20:18;6.30;;;5.80;;
2111;SDS011;1062;52.538;13.400;2022-08-25T11:22:49;6.70;;;5.10;;
2111;SDS011;1062;52.538;13.400;2022-08-25T11:25:23;5.70;;;5.00;;
2111;SDS011;1062;52.538;13.400;2022-08-25T11:28:00;5.60;;;5.07;;
2111;SDS011;1062;52.538;13.400;2022-08-25T11:30:31;5.03;;;4.53;;
2111;SDS011;1062;52.538;13.400;2022-08-25T11:32:57;7.27;;;4.73;;
2111;SDS011;1062;52.538;13.400;2022-08-25T11:35:27;6.23;;;5.10;;
2111;SDS011;1062;52.538;13.400;2022-08-25T11:38:11;13.60;;;4.83;;
2111;SDS011;1062;52.538;13.400;2022-08-25T11:43:23;6.93;;;5.30;;
2111;SDS011;1062;52.538;13.400;2022-08-25T11:45:56;5.87;;;4.80;;
2111;SDS011;1062;52.538;13.400;2022-08-25T11:51:32;7.07;;;4.60;;
2111;SDS011;1062;52.538;13.400;2022-08-25T11:54:26;5.10;;;4.60;;
2111;SDS011;1062;52.538;13.400;2022-08-25T11:57:02;5.97;;;4.63;;
2111;SDS011;1062;52.538;13.400;2022-08-25T12:05:10;5.10;;;4.60;;
2111;SDS011;1062;52.538;13.400;2022-08-25T12:07:58;5.73;;;4.80;;
2111;SDS011;1062;52.538;13.400;2022-08-25T12:10:54;5.63;;;5.00;;
2111;SDS011;1062;52.538;13.400;2022-08-25T12:21:48;5.43;;;4.37;;
2111;SDS011;1062;52.538;13.400;2022-08-25T12:24:15;4.70;;;4.30;;
2111;SDS011;1062;52.538;13.400;2022-08-25T12:26:47;6.30;;;4.53;;
2111;SDS011;1062;52.538;13.400;2022-08-25T12:41:14;10.13;;;5.00;;
2111;SDS011;1062;52.538;13.400;2022-08-25T12:43:46;4.70;;;4.30;;
2111;SDS011;1062;52.538;13.400;2022-08-25T12:48:56;6.00;;;4.90;;
2111;SDS011;1062;52.538;13.400;2022-08-25T12:57:22;10.17;;;5.07;;
2111;SDS011;1062;52.538;13.400;2022-08-25T12:59:58;5.43;;;4.83;;
2111;SDS011;1062;52.538;13.400;2022-08-25T13:13:30;5.03;;;4.27;;
2111;SDS011;1062;52.538;13.400;2022-08-25T13:16:03;4.60;;;4.17;;
2111;SDS011;1062;52.538;13.400;2022-08-25T13:18:33;5.17;;;4.67;;
2111;SDS011;1062;52.538;13.400;2022-08-25T13:21:06;5.07;;;3.90;;
2111;SDS011;1062;52.538;13.400;2022-08-25T13:23:45;8.20;;;4.70;;
2111;SDS011;1062;52.538;13.400;2022-08-25T13:26:14;6.33;;;4.57;;
2111;SDS011;1062;52.538;13.400;2022-08-25T13:31:32;4.57;;;4.03;;
2111;SDS011;1062;52.538;13.400;2022-08-25T13:34:00;7.40;;;4.97;;
2111;SDS011;1062;52.538;13.400;2022-08-25T13:36:29;5.03;;;4.57;;
2111;SDS011;1062;52.538;13.400;2022-08-25T13:39:17;5.00;;;4.43;;
2111;SDS011;1062;52.538;13.400;2022-08-25T13:41:46;4.80;;;4.03;;
2111;SDS011;1062;52.538;13.400;2022-08-25T13:44:18;6.77;;;5.20;;
2111;SDS011;1062;52.538;13.400;2022-08-25T13:46:45;4.80;;;4.37;;
2111;SDS011;1062;52.538;13.400;2022-08-25T13:49:11;5.83;;;4.47;;
2111;SDS011;1062;52.538;13.400;2022-08-25T13:51:52;10.70;;;4.73;;
2111;SDS011;1062;52.538;13.400;2022-08-25T13:54:22;5.90;;;4.30;;
2111;SDS011;1062;52.538;13.400;2022-08-25T13:56:51;7.50;;;4.53;;
2111;SDS011;1062;52.538;13.400;2022-08-25T13:59:27;5.93;;;4.17;;
2111;SDS011;1062;52.538;13.400;2022-08-25T14:01:58;4.10;;;3.70;;
2111;SDS011;1062;52.538;13.400;2022-08-25T14:09:48;5.20;;;4.20;;
2111;SDS011;1062;52.538;13.400;2022-08-25T14:12:26;6.10;;;4.17;;
2111;SDS011;1062;52.538;13.400;2022-08-25T14:15:03;5.10;;;4.60;;
2111;SDS011;1062;52.538;13.400;2022-08-25T14:17:42;5.83;;;4.67;;
2111;SDS011;1062;52.538;13.400;2022-08-25T14:20:15;6.83;;;5.00;;
2111;SDS011;1062;52.538;13.400;2022-08-25T14:22:44;5.33;;;4.57;;
2111;SDS011;1062;52.538;13.400;2022-08-25T14:25:10;7.30;;;4.40;;
2111;SDS011;1062;52.538;13.400;2022-08-25T14:27:36;6.07;;;4.43;;
2111;SDS011;1062;52.538;13.400;2022-08-25T14:30:05;8.83;;;5.10;;
2111;SDS011;1062;52.538;13.400;2022-08-25T14:32:31;15.10;;;4.77;;
2111;SDS011;1062;52.538;13.400;2022-08-25T14:34:56;6.17;;;4.10;;
2111;SDS011;1062;52.538;13.400;2022-08-25T14:37:22;7.20;;;4.17;;
2111;SDS011;1062;52.538;13.400;2022-08-25T14:39:47;8.40;;;4.20;;
2111;SDS011;1062;52.538;13.400;2022-08-25T14:42:13;4.20;;;3.80;;
2111;SDS011;1062;52.538;13.400;2022-08-25T14:44:40;6.50;;;4.00;;
2111;SDS011;1062;52.538;13.400;2022-08-25T14:47:06;6.40;;;5.43;;
2111;SDS011;1062;52.538;13.400;2022-08-25T14:49:34;6.90;;;4.93;;
2111;SDS011;1062;52.538;13.400;2022-08-25T14:52:25;9.90;;;3.67;;
2111;SDS011;1062;52.538;13.400;2022-08-25T14:54:51;7.33;;;4.50;;
2111;SDS011;1062;52.538;13.400;2022-08-25T14:57:17;10.83;;;4.60;;
2111;SDS011;1062;52.538;13.400;2022-08-25T14:59:43;9.43;;;4.00;;
2111;SDS011;1062;52.538;13.400;2022-08-25T15:02:08;7.60;;;4.80;;
2111;SDS011;1062;52.538;13.400;2022-08-25T15:04:38;5.10;;;4.20;;
2111;SDS011;1062;52.538;13.400;2022-08-25T15:07:03;5.77;;;3.93;;
2111;SDS011;1062;52.538;13.400;2022-08-25T15:09:49;5.20;;;4.17;;
2111;SDS011;1062;52.538;13.400;2022-08-25T15:12:16;7.50;;;4.30;;
2111;SDS011;1062;52.538;13.400;2022-08-25T15:14:41;5.77;;;3.80;;
2111;SDS011;1062;52.538;13.400;2022-08-25T15:17:07;5.50;;;3.83;;
2111;SDS011;1062;52.538;13.400;2022-08-25T15:19:33;5.63;;;4.87;;
2111;SDS011;1062;52.538;13.400;2022-08-25T15:21:59;7.60;;;4.00;;
2111;SDS011;1062;52.538;13.400;2022-08-25T15:24:25;5.97;;;4.03;;
2111;SDS011;1062;52.538;13.400;2022-08-25T15:26:52;7.57;;;5.03;;
2111;SDS011;1062;52.538;13.400;2022-08-25T15:29:22;6.97;;;3.80;;
2111;SDS011;1062;52.538;13.400;2022-08-25T15:31:50;8.53;;;4.43;;
2111;SDS011;1062;52.538;13.400;2022-08-25T15:34:16;4.40;;;3.77;;
2111;SDS011;1062;52.538;13.400;2022-08-25T15:36:41;4.73;;;4.30;;
2111;SDS011;1062;52.538;13.400;2022-08-25T15:39:07;5.97;;;4.17;;
2111;SDS011;1062;52.538;13.400;2022-08-25T15:41:33;9.53;;;4.03;;
2111;SDS011;1062;52.538;13.400;2022-08-25T15:44:00;7.13;;;4.00;;
2111;SDS011;1062;52.538;13.400;2022-08-25T15:46:27;7.00;;;4.13;;
2111;SDS011;1062;52.538;13.400;2022-08-25T15:48:54;4.07;;;3.43;;
2111;SDS011;1062;52.538;13.400;2022-08-25T15:51:23;11.97;;;5.63;;
2111;SDS011;1062;52.538;13.400;2022-08-25T15:53:49;7.33;;;5.93;;
2111;SDS011;1062;52.538;13.400;2022-08-25T15:56:15;5.83;;;4.33;;
2111;SDS011;1062;52.538;13.400;2022-08-25T15:58:43;5.33;;;3.83;;
2111;SDS011;1062;52.538;13.400;2022-08-25T16:01:19;4.97;;;3.97;;
2111;SDS011;1062;52.538;13.400;2022-08-25T16:03:47;12.33;;;4.00;;
2111;SDS011;1062;52.538;13.400;2022-08-25T16:06:13;4.07;;;3.50;;
2111;SDS011;1062;52.538;13.400;2022-08-25T16:08:39;7.63;;;4.30;;
2111;SDS011;1062;52.538;13.400;2022-08-25T16:11:05;9.23;;;4.27;;
2111;SDS011;1062;52.538;13.400;2022-08-25T16:13:39;6.53;;;3.73;;
2111;SDS011;1062;52.538;13.400;2022-08-25T16:16:05;4.90;;;4.13;;
2111;SDS011;1062;52.538;13.400;2022-08-25T16:18:30;7.40;;;4.73;;
2111;SDS011;1062;52.538;13.400;2022-08-25T16:20:56;7.70;;;4.67;;
2111;SDS011;1062;52.538;13.400;2022-08-25T16:23:21;5.53;;;4.50;;
2111;SDS011;1062;52.538;13.400;2022-08-25T16:25:47;6.93;;;4.70;;
2111;SDS011;1062;52.538;13.400;2022-08-25T16:28:13;5.97;;;4.20;;
2111;SDS011;1062;52.538;13.400;2022-08-25T16:30:44;7.33;;;4.77;;
2111;SDS011;1062;52.538;13.400;2022-08-25T16:33:13;6.07;;;3.80;;
2111;SDS011;1062;52.538;13.400;2022-08-25T16:35:40;7.00;;;4.70;;
2111;SDS011;1062;52.538;13.400;2022-08-25T16:38:07;4.20;;;3.73;;
2111;SDS011;1062;52.538;13.400;2022-08-25T16:40:33;8.37;;;3.73;;
2111;SDS011;1062;52.538;13.400;2022-08-25T16:43:02;16.70;;;4.43;;
2111;SDS011;1062;52.538;13.400;2022-08-25T16:45:28;5.80;;;3.67;;
2111;SDS011;1062;52.538;13.400;2022-08-25T16:47:54;7.70;;;4.93;;
2111;SDS011;1062;52.538;13.400;2022-08-25T16:50:19;5.63;;;3.30;;
2111;SDS011;1062;52.538;13.400;2022-08-25T16:52:45;5.93;;;3.83;;